<?xml version="1.0" encoding="UTF-8" standalone="no" ?>
<gpx xmlns="http://www.topografix.com/GPX/1/1" xmlns:xsi="http://www.w3.org/2001/XMLSchema-instance" xsi:schemaLocation="http://www.topografix.com/GPX/1/1 http://www.topografix.com/GPX/1/1/gpx.xsd" version="1.1" creator="VisuGPX - https://www.visugpx.com">
  <metadata>
    <name>PARCOUR 4</name>
    <desc><![CDATA[BENOIT THOMAS PAPA]]></desc>
  </metadata>
  <trk>
    <name><![CDATA[B.iCycle Track from 2011-07-21_20.16.41]]></name>
    <trkseg>
      <trkpt lat="44.82843" lon="0.99789">
        <ele>7.920067</ele>
        <time>2011-07-21T18:17:15.183Z</time>
      </trkpt>
      <trkpt lat="44.82871" lon="0.99781">
        <ele>7.920155</ele>
        <time>2011-07-21T18:17:31.178Z</time>
      </trkpt>
      <trkpt lat="44.82911" lon="0.99775">
        <ele>9.920307</ele>
        <time>2011-07-21T18:17:41.180Z</time>
      </trkpt>
      <trkpt lat="44.82939" lon="0.99768">
        <ele>10.920403</ele>
        <time>2011-07-21T18:17:50.184Z</time>
      </trkpt>
      <trkpt lat="44.82972" lon="0.99758">
        <ele>10.920509</ele>
        <time>2011-07-21T18:17:58.221Z</time>
      </trkpt>
      <trkpt lat="44.8299" lon="0.99755">
        <ele>10.920567</ele>
        <time>2011-07-21T18:18:01.218Z</time>
      </trkpt>
      <trkpt lat="44.83015" lon="0.99751">
        <ele>10.92067</ele>
        <time>2011-07-21T18:18:04.246Z</time>
      </trkpt>
      <trkpt lat="44.83039" lon="0.99748">
        <ele>9.920761</ele>
        <time>2011-07-21T18:18:07.209Z</time>
      </trkpt>
      <trkpt lat="44.83059" lon="0.99748">
        <ele>9.920845</ele>
        <time>2011-07-21T18:18:10.204Z</time>
      </trkpt>
      <trkpt lat="44.83065" lon="0.99748">
        <ele>9.92086</ele>
        <time>2011-07-21T18:18:11.217Z</time>
      </trkpt>
      <trkpt lat="44.8307" lon="0.99747">
        <ele>9.920891</ele>
        <time>2011-07-21T18:18:12.202Z</time>
      </trkpt>
      <trkpt lat="44.83075" lon="0.99746">
        <ele>9.92091</ele>
        <time>2011-07-21T18:18:13.212Z</time>
      </trkpt>
      <trkpt lat="44.8308" lon="0.99746">
        <ele>9.920929</ele>
        <time>2011-07-21T18:18:14.215Z</time>
      </trkpt>
      <trkpt lat="44.83085" lon="0.99745">
        <ele>9.920944</ele>
        <time>2011-07-21T18:18:15.206Z</time>
      </trkpt>
      <trkpt lat="44.83106" lon="0.99741">
        <ele>10.921021</ele>
        <time>2011-07-21T18:18:20.214Z</time>
      </trkpt>
      <trkpt lat="44.83114" lon="0.99739">
        <ele>10.921043</ele>
        <time>2011-07-21T18:18:22.206Z</time>
      </trkpt>
      <trkpt lat="44.83122" lon="0.99736">
        <ele>10.921074</ele>
        <time>2011-07-21T18:18:24.207Z</time>
      </trkpt>
      <trkpt lat="44.83131" lon="0.99734">
        <ele>10.921101</ele>
        <time>2011-07-21T18:18:26.210Z</time>
      </trkpt>
      <trkpt lat="44.83139" lon="0.99732">
        <ele>10.921124</ele>
        <time>2011-07-21T18:18:28.211Z</time>
      </trkpt>
      <trkpt lat="44.83147" lon="0.9973">
        <ele>10.921158</ele>
        <time>2011-07-21T18:18:30.205Z</time>
      </trkpt>
      <trkpt lat="44.83156" lon="0.99728">
        <ele>11.921185</ele>
        <time>2011-07-21T18:18:32.214Z</time>
      </trkpt>
      <trkpt lat="44.83165" lon="0.99726">
        <ele>11.921211</ele>
        <time>2011-07-21T18:18:34.206Z</time>
      </trkpt>
      <trkpt lat="44.83173" lon="0.99724">
        <ele>11.921246</ele>
        <time>2011-07-21T18:18:36.207Z</time>
      </trkpt>
      <trkpt lat="44.83194" lon="0.99715">
        <ele>11.921299</ele>
        <time>2011-07-21T18:18:41.214Z</time>
      </trkpt>
      <trkpt lat="44.83202" lon="0.9971">
        <ele>11.921318</ele>
        <time>2011-07-21T18:18:43.214Z</time>
      </trkpt>
      <trkpt lat="44.8321" lon="0.99705">
        <ele>12.921329</ele>
        <time>2011-07-21T18:18:45.209Z</time>
      </trkpt>
      <trkpt lat="44.83217" lon="0.997">
        <ele>12.921349</ele>
        <time>2011-07-21T18:18:47.212Z</time>
      </trkpt>
      <trkpt lat="44.83235" lon="0.99688">
        <ele>12.921379</ele>
        <time>2011-07-21T18:18:52.209Z</time>
      </trkpt>
      <trkpt lat="44.83253" lon="0.99675">
        <ele>12.921406</ele>
        <time>2011-07-21T18:18:57.204Z</time>
      </trkpt>
      <trkpt lat="44.8327" lon="0.99661">
        <ele>12.921425</ele>
        <time>2011-07-21T18:19:02.211Z</time>
      </trkpt>
      <trkpt lat="44.83286" lon="0.99646">
        <ele>11.921448</ele>
        <time>2011-07-21T18:19:07.210Z</time>
      </trkpt>
      <trkpt lat="44.83303" lon="0.99629">
        <ele>12.921455</ele>
        <time>2011-07-21T18:19:12.208Z</time>
      </trkpt>
      <trkpt lat="44.83317" lon="0.99612">
        <ele>11.921463</ele>
        <time>2011-07-21T18:19:17.209Z</time>
      </trkpt>
      <trkpt lat="44.83333" lon="0.99595">
        <ele>11.921459</ele>
        <time>2011-07-21T18:19:22.210Z</time>
      </trkpt>
      <trkpt lat="44.83347" lon="0.99576">
        <ele>11.921455</ele>
        <time>2011-07-21T18:19:27.205Z</time>
      </trkpt>
      <trkpt lat="44.83361" lon="0.99561">
        <ele>11.921459</ele>
        <time>2011-07-21T18:19:32.208Z</time>
      </trkpt>
      <trkpt lat="44.83378" lon="0.99549">
        <ele>11.921497</ele>
        <time>2011-07-21T18:19:38.207Z</time>
      </trkpt>
      <trkpt lat="44.83388" lon="0.99528">
        <ele>11.921459</ele>
        <time>2011-07-21T18:19:46.211Z</time>
      </trkpt>
      <trkpt lat="44.83372" lon="0.99513">
        <ele>10.921341</ele>
        <time>2011-07-21T18:19:56.214Z</time>
      </trkpt>
      <trkpt lat="44.83343" lon="0.99516">
        <ele>10.921227</ele>
        <time>2011-07-21T18:20:04.206Z</time>
      </trkpt>
      <trkpt lat="44.83318" lon="0.99499">
        <ele>10.921059</ele>
        <time>2011-07-21T18:20:11.215Z</time>
      </trkpt>
      <trkpt lat="44.8329" lon="0.99459">
        <ele>10.920799</ele>
        <time>2011-07-21T18:20:21.205Z</time>
      </trkpt>
      <trkpt lat="44.83278" lon="0.99438">
        <ele>10.920666</ele>
        <time>2011-07-21T18:20:25.203Z</time>
      </trkpt>
      <trkpt lat="44.83268" lon="0.99415">
        <ele>10.920555</ele>
        <time>2011-07-21T18:20:29.211Z</time>
      </trkpt>
      <trkpt lat="44.83251" lon="0.99385">
        <ele>10.920372</ele>
        <time>2011-07-21T18:20:35.211Z</time>
      </trkpt>
      <trkpt lat="44.83231" lon="0.99357">
        <ele>10.920189</ele>
        <time>2011-07-21T18:20:43.208Z</time>
      </trkpt>
      <trkpt lat="44.83219" lon="0.99338">
        <ele>10.920071</ele>
        <time>2011-07-21T18:20:46.206Z</time>
      </trkpt>
      <trkpt lat="44.83205" lon="0.99312">
        <ele>10.919914</ele>
        <time>2011-07-21T18:20:50.209Z</time>
      </trkpt>
      <trkpt lat="44.83192" lon="0.99286">
        <ele>9.919765</ele>
        <time>2011-07-21T18:20:54.204Z</time>
      </trkpt>
      <trkpt lat="44.83175" lon="0.99262">
        <ele>8.919613</ele>
        <time>2011-07-21T18:20:58.206Z</time>
      </trkpt>
      <trkpt lat="44.8316" lon="0.99238">
        <ele>8.91946</ele>
        <time>2011-07-21T18:21:03.210Z</time>
      </trkpt>
      <trkpt lat="44.83148" lon="0.99215">
        <ele>7.919327</ele>
        <time>2011-07-21T18:21:09.209Z</time>
      </trkpt>
      <trkpt lat="44.83136" lon="0.99192">
        <ele>7.919197</ele>
        <time>2011-07-21T18:21:17.213Z</time>
      </trkpt>
      <trkpt lat="44.83125" lon="0.99167">
        <ele>8.919064</ele>
        <time>2011-07-21T18:21:22.203Z</time>
      </trkpt>
      <trkpt lat="44.83112" lon="0.99144">
        <ele>8.918926</ele>
        <time>2011-07-21T18:21:27.206Z</time>
      </trkpt>
      <trkpt lat="44.831" lon="0.99124">
        <ele>9.918804</ele>
        <time>2011-07-21T18:21:32.210Z</time>
      </trkpt>
      <trkpt lat="44.83079" lon="0.9909">
        <ele>9.918594</ele>
        <time>2011-07-21T18:21:44.208Z</time>
      </trkpt>
      <trkpt lat="44.8307" lon="0.99066">
        <ele>9.918468</ele>
        <time>2011-07-21T18:21:52.206Z</time>
      </trkpt>
      <trkpt lat="44.8307" lon="0.99031">
        <ele>10.918346</ele>
        <time>2011-07-21T18:22:09.209Z</time>
      </trkpt>
      <trkpt lat="44.83085" lon="0.98998">
        <ele>12.918297</ele>
        <time>2011-07-21T18:22:21.215Z</time>
      </trkpt>
      <trkpt lat="44.83104" lon="0.98965">
        <ele>13.918259</ele>
        <time>2011-07-21T18:22:34.181Z</time>
      </trkpt>
      <trkpt lat="44.83122" lon="0.98933">
        <ele>12.918221</ele>
        <time>2011-07-21T18:22:53.179Z</time>
      </trkpt>
      <trkpt lat="44.82812" lon="0.98432">
        <ele>6.915127</ele>
        <time>2011-07-21T18:26:55.177Z</time>
      </trkpt>
      <trkpt lat="44.82812" lon="0.98367">
        <ele>7.914902</ele>
        <time>2011-07-21T18:27:04.170Z</time>
      </trkpt>
      <trkpt lat="44.82826" lon="0.98307">
        <ele>8.914742</ele>
        <time>2011-07-21T18:27:27.173Z</time>
      </trkpt>
      <trkpt lat="44.8284" lon="0.98246">
        <ele>11.914589</ele>
        <time>2011-07-21T18:27:40.174Z</time>
      </trkpt>
      <trkpt lat="44.82853" lon="0.98136">
        <ele>11.914257</ele>
        <time>2011-07-21T18:28:18.170Z</time>
      </trkpt>
      <trkpt lat="44.82862" lon="0.9805">
        <ele>11.91399</ele>
        <time>2011-07-21T18:28:23.171Z</time>
      </trkpt>
      <trkpt lat="44.82878" lon="0.97985">
        <ele>11.913826</ele>
        <time>2011-07-21T18:28:30.170Z</time>
      </trkpt>
      <trkpt lat="44.82881" lon="0.9796">
        <ele>11.913754</ele>
        <time>2011-07-21T18:28:34.246Z</time>
      </trkpt>
      <trkpt lat="44.8288" lon="0.97932">
        <ele>11.913658</ele>
        <time>2011-07-21T18:28:38.206Z</time>
      </trkpt>
      <trkpt lat="44.82876" lon="0.97904">
        <ele>11.913525</ele>
        <time>2011-07-21T18:28:42.200Z</time>
      </trkpt>
      <trkpt lat="44.8287" lon="0.97877">
        <ele>10.913414</ele>
        <time>2011-07-21T18:28:45.207Z</time>
      </trkpt>
      <trkpt lat="44.82864" lon="0.97848">
        <ele>10.913288</ele>
        <time>2011-07-21T18:28:50.206Z</time>
      </trkpt>
      <trkpt lat="44.82859" lon="0.97822">
        <ele>10.91317</ele>
        <time>2011-07-21T18:28:56.208Z</time>
      </trkpt>
      <trkpt lat="44.82858" lon="0.97796">
        <ele>11.913071</ele>
        <time>2011-07-21T18:29:02.209Z</time>
      </trkpt>
      <trkpt lat="44.82859" lon="0.97768">
        <ele>11.912975</ele>
        <time>2011-07-21T18:29:08.213Z</time>
      </trkpt>
      <trkpt lat="44.8286" lon="0.97739">
        <ele>11.912872</ele>
        <time>2011-07-21T18:29:14.203Z</time>
      </trkpt>
      <trkpt lat="44.8286" lon="0.9771">
        <ele>12.912773</ele>
        <time>2011-07-21T18:29:20.214Z</time>
      </trkpt>
      <trkpt lat="44.82861" lon="0.97683">
        <ele>12.912682</ele>
        <time>2011-07-21T18:29:25.201Z</time>
      </trkpt>
      <trkpt lat="44.82864" lon="0.97657">
        <ele>12.912601</ele>
        <time>2011-07-21T18:29:30.203Z</time>
      </trkpt>
      <trkpt lat="44.82868" lon="0.97631">
        <ele>12.912533</ele>
        <time>2011-07-21T18:29:35.213Z</time>
      </trkpt>
      <trkpt lat="44.82873" lon="0.97605">
        <ele>12.912453</ele>
        <time>2011-07-21T18:29:40.206Z</time>
      </trkpt>
      <trkpt lat="44.82878" lon="0.97581">
        <ele>12.912392</ele>
        <time>2011-07-21T18:29:45.204Z</time>
      </trkpt>
      <trkpt lat="44.82883" lon="0.97556">
        <ele>12.912338</ele>
        <time>2011-07-21T18:29:50.207Z</time>
      </trkpt>
      <trkpt lat="44.8289" lon="0.97532">
        <ele>12.912273</ele>
        <time>2011-07-21T18:29:55.203Z</time>
      </trkpt>
      <trkpt lat="44.82898" lon="0.97508">
        <ele>13.912224</ele>
        <time>2011-07-21T18:30:00.207Z</time>
      </trkpt>
      <trkpt lat="44.82908" lon="0.97486">
        <ele>13.912186</ele>
        <time>2011-07-21T18:30:05.210Z</time>
      </trkpt>
      <trkpt lat="44.82919" lon="0.97461">
        <ele>14.91214</ele>
        <time>2011-07-21T18:30:11.211Z</time>
      </trkpt>
      <trkpt lat="44.82928" lon="0.97433">
        <ele>15.912083</ele>
        <time>2011-07-21T18:30:17.208Z</time>
      </trkpt>
      <trkpt lat="44.82932" lon="0.97407">
        <ele>15.912003</ele>
        <time>2011-07-21T18:30:22.199Z</time>
      </trkpt>
      <trkpt lat="44.82936" lon="0.97379">
        <ele>16.911911</ele>
        <time>2011-07-21T18:30:27.204Z</time>
      </trkpt>
      <trkpt lat="44.82937" lon="0.97351">
        <ele>16.911827</ele>
        <time>2011-07-21T18:30:32.208Z</time>
      </trkpt>
      <trkpt lat="44.82937" lon="0.97323">
        <ele>16.911728</ele>
        <time>2011-07-21T18:30:37.207Z</time>
      </trkpt>
      <trkpt lat="44.82933" lon="0.97297">
        <ele>16.911613</ele>
        <time>2011-07-21T18:30:42.201Z</time>
      </trkpt>
      <trkpt lat="44.8293" lon="0.9727">
        <ele>16.911514</ele>
        <time>2011-07-21T18:30:47.207Z</time>
      </trkpt>
      <trkpt lat="44.82926" lon="0.97245">
        <ele>16.911407</ele>
        <time>2011-07-21T18:30:52.206Z</time>
      </trkpt>
      <trkpt lat="44.82923" lon="0.97192">
        <ele>16.911205</ele>
        <time>2011-07-21T18:31:21.206Z</time>
      </trkpt>
      <trkpt lat="44.82926" lon="0.97164">
        <ele>16.91111</ele>
        <time>2011-07-21T18:31:27.205Z</time>
      </trkpt>
      <trkpt lat="44.82928" lon="0.97135">
        <ele>17.911026</ele>
        <time>2011-07-21T18:31:32.206Z</time>
      </trkpt>
      <trkpt lat="44.8293" lon="0.97109">
        <ele>17.910942</ele>
        <time>2011-07-21T18:31:36.202Z</time>
      </trkpt>
      <trkpt lat="44.82936" lon="0.97053">
        <ele>18.910759</ele>
        <time>2011-07-21T18:31:52.200Z</time>
      </trkpt>
      <trkpt lat="44.82958" lon="0.9703">
        <ele>18.910782</ele>
        <time>2011-07-21T18:32:08.204Z</time>
      </trkpt>
      <trkpt lat="44.82985" lon="0.97026">
        <ele>18.910889</ele>
        <time>2011-07-21T18:32:16.174Z</time>
      </trkpt>
      <trkpt lat="44.83" lon="0.96994">
        <ele>18.910835</ele>
        <time>2011-07-21T18:32:28.173Z</time>
      </trkpt>
      <trkpt lat="44.83009" lon="0.96953">
        <ele>18.910721</ele>
        <time>2011-07-21T18:32:39.174Z</time>
      </trkpt>
      <trkpt lat="44.83017" lon="0.96914">
        <ele>18.910622</ele>
        <time>2011-07-21T18:32:50.170Z</time>
      </trkpt>
      <trkpt lat="44.83028" lon="0.96877">
        <ele>19.910515</ele>
        <time>2011-07-21T18:32:57.170Z</time>
      </trkpt>
      <trkpt lat="44.83041" lon="0.96838">
        <ele>19.910454</ele>
        <time>2011-07-21T18:33:06.169Z</time>
      </trkpt>
      <trkpt lat="44.83056" lon="0.96798">
        <ele>19.91037</ele>
        <time>2011-07-21T18:33:12.171Z</time>
      </trkpt>
      <trkpt lat="44.83071" lon="0.96763">
        <ele>19.910316</ele>
        <time>2011-07-21T18:33:19.172Z</time>
      </trkpt>
      <trkpt lat="44.83086" lon="0.96731">
        <ele>18.910255</ele>
        <time>2011-07-21T18:33:27.171Z</time>
      </trkpt>
      <trkpt lat="44.83102" lon="0.96702">
        <ele>18.910213</ele>
        <time>2011-07-21T18:33:32.169Z</time>
      </trkpt>
      <trkpt lat="44.83116" lon="0.96681">
        <ele>18.91021</ele>
        <time>2011-07-21T18:33:36.198Z</time>
      </trkpt>
      <trkpt lat="44.8313" lon="0.96659">
        <ele>18.910194</ele>
        <time>2011-07-21T18:33:41.206Z</time>
      </trkpt>
      <trkpt lat="44.83143" lon="0.96638">
        <ele>18.910164</ele>
        <time>2011-07-21T18:33:46.204Z</time>
      </trkpt>
      <trkpt lat="44.83155" lon="0.96614">
        <ele>19.910133</ele>
        <time>2011-07-21T18:33:52.204Z</time>
      </trkpt>
      <trkpt lat="44.83179" lon="0.9657">
        <ele>20.910088</ele>
        <time>2011-07-21T18:34:35.168Z</time>
      </trkpt>
      <trkpt lat="44.83156" lon="0.96557">
        <ele>20.909943</ele>
        <time>2011-07-21T18:34:45.202Z</time>
      </trkpt>
      <trkpt lat="44.83137" lon="0.96547">
        <ele>20.909817</ele>
        <time>2011-07-21T18:34:49.203Z</time>
      </trkpt>
      <trkpt lat="44.83116" lon="0.96537">
        <ele>19.909695</ele>
        <time>2011-07-21T18:34:53.207Z</time>
      </trkpt>
      <trkpt lat="44.83098" lon="0.96525">
        <ele>19.909576</ele>
        <time>2011-07-21T18:34:57.205Z</time>
      </trkpt>
      <trkpt lat="44.83082" lon="0.96512">
        <ele>19.909466</ele>
        <time>2011-07-21T18:35:01.216Z</time>
      </trkpt>
      <trkpt lat="44.83063" lon="0.96497">
        <ele>19.90934</ele>
        <time>2011-07-21T18:35:06.210Z</time>
      </trkpt>
      <trkpt lat="44.83047" lon="0.96481">
        <ele>19.909203</ele>
        <time>2011-07-21T18:35:11.213Z</time>
      </trkpt>
      <trkpt lat="44.83033" lon="0.96463">
        <ele>19.909088</ele>
        <time>2011-07-21T18:35:16.217Z</time>
      </trkpt>
      <trkpt lat="44.83019" lon="0.96445">
        <ele>18.908966</ele>
        <time>2011-07-21T18:35:21.200Z</time>
      </trkpt>
      <trkpt lat="44.83004" lon="0.96424">
        <ele>18.908821</ele>
        <time>2011-07-21T18:35:27.205Z</time>
      </trkpt>
      <trkpt lat="44.8299" lon="0.96407">
        <ele>17.90871</ele>
        <time>2011-07-21T18:35:32.207Z</time>
      </trkpt>
      <trkpt lat="44.82975" lon="0.96387">
        <ele>17.908569</ele>
        <time>2011-07-21T18:35:38.206Z</time>
      </trkpt>
      <trkpt lat="44.82966" lon="0.96365">
        <ele>18.908447</ele>
        <time>2011-07-21T18:35:44.206Z</time>
      </trkpt>
      <trkpt lat="44.82963" lon="0.96339">
        <ele>18.908356</ele>
        <time>2011-07-21T18:35:51.206Z</time>
      </trkpt>
      <trkpt lat="44.82973" lon="0.96295">
        <ele>18.908234</ele>
        <time>2011-07-21T18:36:08.204Z</time>
      </trkpt>
      <trkpt lat="44.82983" lon="0.96262">
        <ele>18.908157</ele>
        <time>2011-07-21T18:36:15.197Z</time>
      </trkpt>
      <trkpt lat="44.82993" lon="0.9624">
        <ele>18.908123</ele>
        <time>2011-07-21T18:36:21.201Z</time>
      </trkpt>
      <trkpt lat="44.83004" lon="0.96216">
        <ele>19.908089</ele>
        <time>2011-07-21T18:36:26.207Z</time>
      </trkpt>
      <trkpt lat="44.83014" lon="0.96193">
        <ele>19.908047</ele>
        <time>2011-07-21T18:36:30.201Z</time>
      </trkpt>
      <trkpt lat="44.83024" lon="0.96167">
        <ele>19.908001</ele>
        <time>2011-07-21T18:36:34.204Z</time>
      </trkpt>
      <trkpt lat="44.83034" lon="0.96142">
        <ele>19.907948</ele>
        <time>2011-07-21T18:36:38.205Z</time>
      </trkpt>
      <trkpt lat="44.83044" lon="0.96119">
        <ele>20.907913</ele>
        <time>2011-07-21T18:36:42.206Z</time>
      </trkpt>
      <trkpt lat="44.83056" lon="0.96092">
        <ele>20.907867</ele>
        <time>2011-07-21T18:36:46.319Z</time>
      </trkpt>
      <trkpt lat="44.83065" lon="0.96069">
        <ele>21.907825</ele>
        <time>2011-07-21T18:36:49.319Z</time>
      </trkpt>
      <trkpt lat="44.83079" lon="0.96035">
        <ele>22.907768</ele>
        <time>2011-07-21T18:36:52.323Z</time>
      </trkpt>
      <trkpt lat="44.83091" lon="0.96008">
        <ele>22.907715</ele>
        <time>2011-07-21T18:36:55.322Z</time>
      </trkpt>
      <trkpt lat="44.83104" lon="0.9598">
        <ele>22.907673</ele>
        <time>2011-07-21T18:36:59.322Z</time>
      </trkpt>
      <trkpt lat="44.83116" lon="0.95954">
        <ele>23.907631</ele>
        <time>2011-07-21T18:37:03.317Z</time>
      </trkpt>
      <trkpt lat="44.83132" lon="0.9593">
        <ele>23.907608</ele>
        <time>2011-07-21T18:37:19.326Z</time>
      </trkpt>
      <trkpt lat="44.83151" lon="0.95902">
        <ele>23.907593</ele>
        <time>2011-07-21T18:37:31.320Z</time>
      </trkpt>
      <trkpt lat="44.83171" lon="0.95876">
        <ele>23.907581</ele>
        <time>2011-07-21T18:37:40.286Z</time>
      </trkpt>
      <trkpt lat="44.83194" lon="0.95849">
        <ele>23.907585</ele>
        <time>2011-07-21T18:37:48.287Z</time>
      </trkpt>
      <trkpt lat="44.83217" lon="0.95825">
        <ele>23.9076</ele>
        <time>2011-07-21T18:37:56.288Z</time>
      </trkpt>
      <trkpt lat="44.83236" lon="0.95808">
        <ele>24.907608</ele>
        <time>2011-07-21T18:38:02.317Z</time>
      </trkpt>
      <trkpt lat="44.83264" lon="0.95775">
        <ele>24.907616</ele>
        <time>2011-07-21T18:38:15.322Z</time>
      </trkpt>
      <trkpt lat="44.83288" lon="0.95751">
        <ele>24.907635</ele>
        <time>2011-07-21T18:38:22.320Z</time>
      </trkpt>
      <trkpt lat="44.83312" lon="0.95729">
        <ele>24.907661</ele>
        <time>2011-07-21T18:38:32.315Z</time>
      </trkpt>
      <trkpt lat="44.83335" lon="0.95706">
        <ele>24.907673</ele>
        <time>2011-07-21T18:38:46.289Z</time>
      </trkpt>
      <trkpt lat="44.83358" lon="0.95678">
        <ele>24.907673</ele>
        <time>2011-07-21T18:39:02.287Z</time>
      </trkpt>
      <trkpt lat="44.83378" lon="0.9565">
        <ele>24.907654</ele>
        <time>2011-07-21T18:39:14.288Z</time>
      </trkpt>
      <trkpt lat="44.83416" lon="0.95616">
        <ele>24.9077</ele>
        <time>2011-07-21T18:39:43.289Z</time>
      </trkpt>
      <trkpt lat="44.83461" lon="0.95622">
        <ele>24.907913</ele>
        <time>2011-07-21T18:39:58.285Z</time>
      </trkpt>
      <trkpt lat="44.83515" lon="0.9564">
        <ele>25.908195</ele>
        <time>2011-07-21T18:40:15.285Z</time>
      </trkpt>
      <trkpt lat="44.83559" lon="0.95655">
        <ele>24.908432</ele>
        <time>2011-07-21T18:40:27.322Z</time>
      </trkpt>
      <trkpt lat="44.83665" lon="0.95707">
        <ele>22.909073</ele>
        <time>2011-07-21T18:41:04.288Z</time>
      </trkpt>
      <trkpt lat="44.83712" lon="0.95727">
        <ele>21.909336</ele>
        <time>2011-07-21T18:41:06.286Z</time>
      </trkpt>
      <trkpt lat="44.83761" lon="0.95732">
        <ele>21.909561</ele>
        <time>2011-07-21T18:41:14.279Z</time>
      </trkpt>
      <trkpt lat="44.83797" lon="0.9569">
        <ele>23.909565</ele>
        <time>2011-07-21T18:41:33.284Z</time>
      </trkpt>
      <trkpt lat="44.83833" lon="0.95625">
        <ele>23.909485</ele>
        <time>2011-07-21T18:41:51.287Z</time>
      </trkpt>
      <trkpt lat="44.83865" lon="0.95554">
        <ele>24.90937</ele>
        <time>2011-07-21T18:41:57.289Z</time>
      </trkpt>
      <trkpt lat="44.83902" lon="0.95515">
        <ele>24.909382</ele>
        <time>2011-07-21T18:42:03.287Z</time>
      </trkpt>
      <trkpt lat="44.83919" lon="0.95483">
        <ele>24.90934</ele>
        <time>2011-07-21T18:42:10.287Z</time>
      </trkpt>
      <trkpt lat="44.83935" lon="0.9545">
        <ele>24.909294</ele>
        <time>2011-07-21T18:42:21.286Z</time>
      </trkpt>
      <trkpt lat="44.83951" lon="0.95419">
        <ele>24.909256</ele>
        <time>2011-07-21T18:42:30.289Z</time>
      </trkpt>
      <trkpt lat="44.83981" lon="0.95367">
        <ele>24.909187</ele>
        <time>2011-07-21T18:42:45.318Z</time>
      </trkpt>
      <trkpt lat="44.84" lon="0.95339">
        <ele>24.909168</ele>
        <time>2011-07-21T18:42:53.322Z</time>
      </trkpt>
      <trkpt lat="44.84017" lon="0.95316">
        <ele>24.909164</ele>
        <time>2011-07-21T18:42:58.315Z</time>
      </trkpt>
      <trkpt lat="44.84063" lon="0.95258">
        <ele>24.909149</ele>
        <time>2011-07-21T18:43:27.318Z</time>
      </trkpt>
      <trkpt lat="44.84433" lon="0.95135">
        <ele>27.910263</ele>
        <time>2011-07-21T18:45:51.317Z</time>
      </trkpt>
      <trkpt lat="44.84443" lon="0.95179">
        <ele>34.910469</ele>
        <time>2011-07-21T18:47:16.283Z</time>
      </trkpt>
      <trkpt lat="44.84468" lon="0.95195">
        <ele>36.910629</ele>
        <time>2011-07-21T18:48:03.284Z</time>
      </trkpt>
      <trkpt lat="44.84491" lon="0.95217">
        <ele>38.910805</ele>
        <time>2011-07-21T18:48:49.283Z</time>
      </trkpt>
      <trkpt lat="44.84511" lon="0.95244">
        <ele>43.910988</ele>
        <time>2011-07-21T18:49:29.276Z</time>
      </trkpt>
      <trkpt lat="44.84578" lon="0.95274">
        <ele>48.911373</ele>
        <time>2011-07-21T18:52:42.309Z</time>
      </trkpt>
      <trkpt lat="44.84601" lon="0.95296">
        <ele>46.911552</ele>
        <time>2011-07-21T18:53:08.281Z</time>
      </trkpt>
      <trkpt lat="44.84626" lon="0.95311">
        <ele>50.911709</ele>
        <time>2011-07-21T18:53:55.277Z</time>
      </trkpt>
      <trkpt lat="44.84634" lon="0.95334">
        <ele>59.911816</ele>
        <time>2011-07-21T18:54:21.279Z</time>
      </trkpt>
      <trkpt lat="44.84641" lon="0.95359">
        <ele>66.911949</ele>
        <time>2011-07-21T18:54:40.278Z</time>
      </trkpt>
      <trkpt lat="44.84646" lon="0.95384">
        <ele>69.912056</ele>
        <time>2011-07-21T18:54:50.276Z</time>
      </trkpt>
      <trkpt lat="44.84654" lon="0.95413">
        <ele>73.912178</ele>
        <time>2011-07-21T18:55:05.280Z</time>
      </trkpt>
      <trkpt lat="44.84687" lon="0.95668">
        <ele>72.913239</ele>
        <time>2011-07-21T18:58:20.273Z</time>
      </trkpt>
      <trkpt lat="44.84706" lon="0.95727">
        <ele>84.913528</ele>
        <time>2011-07-21T18:58:49.280Z</time>
      </trkpt>
      <trkpt lat="44.84713" lon="0.96354">
        <ele>106.915787</ele>
        <time>2011-07-21T19:04:35.307Z</time>
      </trkpt>
      <trkpt lat="44.84672" lon="0.96345">
        <ele>60.915588</ele>
        <time>2011-07-21T19:04:42.272Z</time>
      </trkpt>
      <trkpt lat="44.84644" lon="0.96343">
        <ele>61.915459</ele>
        <time>2011-07-21T19:05:19.276Z</time>
      </trkpt>
      <trkpt lat="44.84616" lon="0.96343">
        <ele>61.915333</ele>
        <time>2011-07-21T19:05:56.269Z</time>
      </trkpt>
      <trkpt lat="44.84589" lon="0.96337">
        <ele>62.915207</ele>
        <time>2011-07-21T19:06:43.272Z</time>
      </trkpt>
      <trkpt lat="44.84562" lon="0.96334">
        <ele>65.915077</ele>
        <time>2011-07-21T19:07:03.372Z</time>
      </trkpt>
      <trkpt lat="44.8454" lon="0.96359">
        <ele>67.915085</ele>
        <time>2011-07-21T19:07:48.266Z</time>
      </trkpt>
      <trkpt lat="44.84538" lon="0.96397">
        <ele>67.915207</ele>
        <time>2011-07-21T19:07:59.270Z</time>
      </trkpt>
      <trkpt lat="44.84532" lon="0.96436">
        <ele>68.915314</ele>
        <time>2011-07-21T19:08:16.269Z</time>
      </trkpt>
      <trkpt lat="44.84496" lon="0.9644">
        <ele>68.915176</ele>
        <time>2011-07-21T19:08:28.272Z</time>
      </trkpt>
      <trkpt lat="44.84468" lon="0.96437">
        <ele>68.915039</ele>
        <time>2011-07-21T19:08:32.264Z</time>
      </trkpt>
      <trkpt lat="44.84447" lon="0.96427">
        <ele>68.914925</ele>
        <time>2011-07-21T19:08:35.295Z</time>
      </trkpt>
      <trkpt lat="44.84434" lon="0.96409">
        <ele>68.91481</ele>
        <time>2011-07-21T19:08:40.323Z</time>
      </trkpt>
      <trkpt lat="44.84417" lon="0.96393">
        <ele>68.91468</ele>
        <time>2011-07-21T19:08:45.297Z</time>
      </trkpt>
      <trkpt lat="44.844" lon="0.96404">
        <ele>69.914642</ele>
        <time>2011-07-21T19:08:50.310Z</time>
      </trkpt>
      <trkpt lat="44.84381" lon="0.96416">
        <ele>69.914612</ele>
        <time>2011-07-21T19:08:56.299Z</time>
      </trkpt>
      <trkpt lat="44.84361" lon="0.96426">
        <ele>69.914566</ele>
        <time>2011-07-21T19:09:03.303Z</time>
      </trkpt>
      <trkpt lat="44.84333" lon="0.96432">
        <ele>69.914459</ele>
        <time>2011-07-21T19:09:41.264Z</time>
      </trkpt>
      <trkpt lat="44.8435" lon="0.96461">
        <ele>73.914642</ele>
        <time>2011-07-21T19:10:52.267Z</time>
      </trkpt>
      <trkpt lat="44.84365" lon="0.96495">
        <ele>74.914825</ele>
        <time>2011-07-21T19:11:08.268Z</time>
      </trkpt>
      <trkpt lat="44.84366" lon="0.96527">
        <ele>74.91494</ele>
        <time>2011-07-21T19:11:19.269Z</time>
      </trkpt>
      <trkpt lat="44.84348" lon="0.96563">
        <ele>74.914993</ele>
        <time>2011-07-21T19:11:52.268Z</time>
      </trkpt>
      <trkpt lat="44.84323" lon="0.9659">
        <ele>76.914978</ele>
        <time>2011-07-21T19:12:13.267Z</time>
      </trkpt>
      <trkpt lat="44.84311" lon="0.96619">
        <ele>78.915039</ele>
        <time>2011-07-21T19:12:19.297Z</time>
      </trkpt>
      <trkpt lat="44.84303" lon="0.96644">
        <ele>79.915085</ele>
        <time>2011-07-21T19:12:24.297Z</time>
      </trkpt>
      <trkpt lat="44.84295" lon="0.96669">
        <ele>80.915146</ele>
        <time>2011-07-21T19:12:28.305Z</time>
      </trkpt>
      <trkpt lat="44.84286" lon="0.96694">
        <ele>82.915192</ele>
        <time>2011-07-21T19:12:31.301Z</time>
      </trkpt>
      <trkpt lat="44.84275" lon="0.9672">
        <ele>84.915245</ele>
        <time>2011-07-21T19:12:34.319Z</time>
      </trkpt>
      <trkpt lat="44.84263" lon="0.96746">
        <ele>84.915283</ele>
        <time>2011-07-21T19:12:37.304Z</time>
      </trkpt>
      <trkpt lat="44.8425" lon="0.96771">
        <ele>84.915314</ele>
        <time>2011-07-21T19:12:41.302Z</time>
      </trkpt>
      <trkpt lat="44.84237" lon="0.96792">
        <ele>84.915344</ele>
        <time>2011-07-21T19:12:47.304Z</time>
      </trkpt>
      <trkpt lat="44.8421" lon="0.96787">
        <ele>87.915222</ele>
        <time>2011-07-21T19:13:02.301Z</time>
      </trkpt>
      <trkpt lat="44.84201" lon="0.96777">
        <ele>88.915138</ele>
        <time>2011-07-21T19:13:05.298Z</time>
      </trkpt>
      <trkpt lat="44.84196" lon="0.96771">
        <ele>88.9151</ele>
        <time>2011-07-21T19:13:06.302Z</time>
      </trkpt>
      <trkpt lat="44.84191" lon="0.96765">
        <ele>89.915039</ele>
        <time>2011-07-21T19:13:07.298Z</time>
      </trkpt>
      <trkpt lat="44.84186" lon="0.96758">
        <ele>89.914993</ele>
        <time>2011-07-21T19:13:08.297Z</time>
      </trkpt>
      <trkpt lat="44.84181" lon="0.96752">
        <ele>88.914963</ele>
        <time>2011-07-21T19:13:09.295Z</time>
      </trkpt>
      <trkpt lat="44.84164" lon="0.96741">
        <ele>89.914848</ele>
        <time>2011-07-21T19:13:12.300Z</time>
      </trkpt>
      <trkpt lat="44.8414" lon="0.96727">
        <ele>89.914688</ele>
        <time>2011-07-21T19:13:15.298Z</time>
      </trkpt>
      <trkpt lat="44.84117" lon="0.96726">
        <ele>90.914589</ele>
        <time>2011-07-21T19:13:18.301Z</time>
      </trkpt>
      <trkpt lat="44.84098" lon="0.96726">
        <ele>90.91452</ele>
        <time>2011-07-21T19:13:21.299Z</time>
      </trkpt>
      <trkpt lat="44.84063" lon="0.96757">
        <ele>88.91449</ele>
        <time>2011-07-21T19:14:06.267Z</time>
      </trkpt>
      <trkpt lat="44.84045" lon="0.96787">
        <ele>87.914505</ele>
        <time>2011-07-21T19:14:12.267Z</time>
      </trkpt>
      <trkpt lat="44.84029" lon="0.96824">
        <ele>87.914566</ele>
        <time>2011-07-21T19:14:14.261Z</time>
      </trkpt>
      <trkpt lat="44.84007" lon="0.96871">
        <ele>86.914642</ele>
        <time>2011-07-21T19:14:16.265Z</time>
      </trkpt>
      <trkpt lat="44.83986" lon="0.96911">
        <ele>85.914696</ele>
        <time>2011-07-21T19:14:18.295Z</time>
      </trkpt>
      <trkpt lat="44.83966" lon="0.96945">
        <ele>85.914734</ele>
        <time>2011-07-21T19:14:20.299Z</time>
      </trkpt>
      <trkpt lat="44.83943" lon="0.96977">
        <ele>84.914757</ele>
        <time>2011-07-21T19:14:22.304Z</time>
      </trkpt>
      <trkpt lat="44.83922" lon="0.97006">
        <ele>83.914772</ele>
        <time>2011-07-21T19:14:24.297Z</time>
      </trkpt>
      <trkpt lat="44.83906" lon="0.97033">
        <ele>83.914795</ele>
        <time>2011-07-21T19:14:26.298Z</time>
      </trkpt>
      <trkpt lat="44.83884" lon="0.97061">
        <ele>82.914795</ele>
        <time>2011-07-21T19:14:28.300Z</time>
      </trkpt>
      <trkpt lat="44.83865" lon="0.97088">
        <ele>82.91481</ele>
        <time>2011-07-21T19:14:30.297Z</time>
      </trkpt>
      <trkpt lat="44.83847" lon="0.97118">
        <ele>82.914841</ele>
        <time>2011-07-21T19:14:32.300Z</time>
      </trkpt>
      <trkpt lat="44.83827" lon="0.9714">
        <ele>82.914833</ele>
        <time>2011-07-21T19:14:34.302Z</time>
      </trkpt>
      <trkpt lat="44.83805" lon="0.97158">
        <ele>82.914818</ele>
        <time>2011-07-21T19:14:36.296Z</time>
      </trkpt>
      <trkpt lat="44.83785" lon="0.97176">
        <ele>82.914795</ele>
        <time>2011-07-21T19:14:38.297Z</time>
      </trkpt>
      <trkpt lat="44.83762" lon="0.97191">
        <ele>83.914742</ele>
        <time>2011-07-21T19:14:40.302Z</time>
      </trkpt>
      <trkpt lat="44.83737" lon="0.97207">
        <ele>83.91468</ele>
        <time>2011-07-21T19:14:42.295Z</time>
      </trkpt>
      <trkpt lat="44.83712" lon="0.97221">
        <ele>84.914642</ele>
        <time>2011-07-21T19:14:44.298Z</time>
      </trkpt>
      <trkpt lat="44.83693" lon="0.97234">
        <ele>83.914597</ele>
        <time>2011-07-21T19:14:46.300Z</time>
      </trkpt>
      <trkpt lat="44.83675" lon="0.97246">
        <ele>83.914566</ele>
        <time>2011-07-21T19:14:48.310Z</time>
      </trkpt>
      <trkpt lat="44.83656" lon="0.97256">
        <ele>82.914536</ele>
        <time>2011-07-21T19:14:50.296Z</time>
      </trkpt>
      <trkpt lat="44.83638" lon="0.97267">
        <ele>82.914497</ele>
        <time>2011-07-21T19:14:52.302Z</time>
      </trkpt>
      <trkpt lat="44.83621" lon="0.97279">
        <ele>81.914467</ele>
        <time>2011-07-21T19:14:54.301Z</time>
      </trkpt>
      <trkpt lat="44.83599" lon="0.97295">
        <ele>78.914429</ele>
        <time>2011-07-21T19:14:57.297Z</time>
      </trkpt>
      <trkpt lat="44.83578" lon="0.9731">
        <ele>78.914383</ele>
        <time>2011-07-21T19:15:00.299Z</time>
      </trkpt>
      <trkpt lat="44.8356" lon="0.9732">
        <ele>77.914352</ele>
        <time>2011-07-21T19:15:03.295Z</time>
      </trkpt>
      <trkpt lat="44.83537" lon="0.97325">
        <ele>75.914276</ele>
        <time>2011-07-21T19:15:07.298Z</time>
      </trkpt>
      <trkpt lat="44.83513" lon="0.97321">
        <ele>74.914154</ele>
        <time>2011-07-21T19:15:11.296Z</time>
      </trkpt>
      <trkpt lat="44.83491" lon="0.97316">
        <ele>73.914047</ele>
        <time>2011-07-21T19:15:14.302Z</time>
      </trkpt>
      <trkpt lat="44.83472" lon="0.97313">
        <ele>73.913956</ele>
        <time>2011-07-21T19:15:16.302Z</time>
      </trkpt>
      <trkpt lat="44.83453" lon="0.97311">
        <ele>73.913864</ele>
        <time>2011-07-21T19:15:18.300Z</time>
      </trkpt>
      <trkpt lat="44.83432" lon="0.97308">
        <ele>72.913765</ele>
        <time>2011-07-21T19:15:20.294Z</time>
      </trkpt>
      <trkpt lat="44.8341" lon="0.97305">
        <ele>72.913666</ele>
        <time>2011-07-21T19:15:22.300Z</time>
      </trkpt>
      <trkpt lat="44.83387" lon="0.97302">
        <ele>72.913551</ele>
        <time>2011-07-21T19:15:24.308Z</time>
      </trkpt>
      <trkpt lat="44.83364" lon="0.97299">
        <ele>71.913452</ele>
        <time>2011-07-21T19:15:26.292Z</time>
      </trkpt>
      <trkpt lat="44.83341" lon="0.97299">
        <ele>70.913345</ele>
        <time>2011-07-21T19:15:28.306Z</time>
      </trkpt>
      <trkpt lat="44.83318" lon="0.97299">
        <ele>70.913254</ele>
        <time>2011-07-21T19:15:30.305Z</time>
      </trkpt>
      <trkpt lat="44.83295" lon="0.973">
        <ele>70.91317</ele>
        <time>2011-07-21T19:15:32.302Z</time>
      </trkpt>
      <trkpt lat="44.83273" lon="0.97305">
        <ele>70.913094</ele>
        <time>2011-07-21T19:15:34.299Z</time>
      </trkpt>
      <trkpt lat="44.8325" lon="0.9731">
        <ele>70.91301</ele>
        <time>2011-07-21T19:15:36.298Z</time>
      </trkpt>
      <trkpt lat="44.83229" lon="0.97318">
        <ele>69.912941</ele>
        <time>2011-07-21T19:15:38.297Z</time>
      </trkpt>
      <trkpt lat="44.83209" lon="0.97332">
        <ele>69.912903</ele>
        <time>2011-07-21T19:15:40.301Z</time>
      </trkpt>
      <trkpt lat="44.83196" lon="0.97357">
        <ele>69.912941</ele>
        <time>2011-07-21T19:15:42.299Z</time>
      </trkpt>
      <trkpt lat="44.83183" lon="0.97381">
        <ele>67.912971</ele>
        <time>2011-07-21T19:15:44.294Z</time>
      </trkpt>
      <trkpt lat="44.83177" lon="0.9741">
        <ele>67.913048</ele>
        <time>2011-07-21T19:15:46.302Z</time>
      </trkpt>
      <trkpt lat="44.83172" lon="0.97439">
        <ele>67.913139</ele>
        <time>2011-07-21T19:15:48.298Z</time>
      </trkpt>
      <trkpt lat="44.83167" lon="0.97469">
        <ele>66.913208</ele>
        <time>2011-07-21T19:15:50.300Z</time>
      </trkpt>
      <trkpt lat="44.83164" lon="0.97501">
        <ele>67.913322</ele>
        <time>2011-07-21T19:15:52.295Z</time>
      </trkpt>
      <trkpt lat="44.8316" lon="0.97534">
        <ele>67.913422</ele>
        <time>2011-07-21T19:15:54.307Z</time>
      </trkpt>
      <trkpt lat="44.83157" lon="0.97565">
        <ele>68.913513</ele>
        <time>2011-07-21T19:15:56.294Z</time>
      </trkpt>
      <trkpt lat="44.83154" lon="0.97596">
        <ele>70.91362</ele>
        <time>2011-07-21T19:15:58.302Z</time>
      </trkpt>
      <trkpt lat="44.83152" lon="0.97627">
        <ele>70.913719</ele>
        <time>2011-07-21T19:16:00.292Z</time>
      </trkpt>
      <trkpt lat="44.8315" lon="0.97655">
        <ele>69.913811</ele>
        <time>2011-07-21T19:16:02.300Z</time>
      </trkpt>
      <trkpt lat="44.83148" lon="0.97682">
        <ele>68.913895</ele>
        <time>2011-07-21T19:16:05.298Z</time>
      </trkpt>
      <trkpt lat="44.83149" lon="0.97715">
        <ele>67.914001</ele>
        <time>2011-07-21T19:16:07.300Z</time>
      </trkpt>
      <trkpt lat="44.8315" lon="0.9775">
        <ele>65.914139</ele>
        <time>2011-07-21T19:16:10.302Z</time>
      </trkpt>
      <trkpt lat="44.83153" lon="0.97783">
        <ele>62.914276</ele>
        <time>2011-07-21T19:16:13.301Z</time>
      </trkpt>
      <trkpt lat="44.83155" lon="0.97813">
        <ele>61.914383</ele>
        <time>2011-07-21T19:16:16.302Z</time>
      </trkpt>
      <trkpt lat="44.83157" lon="0.97842">
        <ele>59.914497</ele>
        <time>2011-07-21T19:16:19.575Z</time>
      </trkpt>
      <trkpt lat="44.83157" lon="0.97869">
        <ele>59.9146</ele>
        <time>2011-07-21T19:16:22.301Z</time>
      </trkpt>
      <trkpt lat="44.83157" lon="0.97895">
        <ele>57.914688</ele>
        <time>2011-07-21T19:16:25.304Z</time>
      </trkpt>
      <trkpt lat="44.83156" lon="0.97927">
        <ele>55.914791</ele>
        <time>2011-07-21T19:16:29.297Z</time>
      </trkpt>
      <trkpt lat="44.83157" lon="0.97958">
        <ele>52.914917</ele>
        <time>2011-07-21T19:16:33.300Z</time>
      </trkpt>
      <trkpt lat="44.83158" lon="0.97987">
        <ele>50.91502</ele>
        <time>2011-07-21T19:16:37.360Z</time>
      </trkpt>
      <trkpt lat="44.8316" lon="0.98014">
        <ele>47.915123</ele>
        <time>2011-07-21T19:16:41.298Z</time>
      </trkpt>
      <trkpt lat="44.8316" lon="0.98041">
        <ele>44.915222</ele>
        <time>2011-07-21T19:16:45.301Z</time>
      </trkpt>
      <trkpt lat="44.83161" lon="0.98069">
        <ele>42.915329</ele>
        <time>2011-07-21T19:16:49.299Z</time>
      </trkpt>
      <trkpt lat="44.83161" lon="0.98097">
        <ele>37.915421</ele>
        <time>2011-07-21T19:16:53.300Z</time>
      </trkpt>
      <trkpt lat="44.8316" lon="0.98124">
        <ele>36.915512</ele>
        <time>2011-07-21T19:16:57.298Z</time>
      </trkpt>
      <trkpt lat="44.83158" lon="0.98151">
        <ele>35.9156</ele>
        <time>2011-07-21T19:17:01.301Z</time>
      </trkpt>
      <trkpt lat="44.83157" lon="0.98178">
        <ele>34.915691</ele>
        <time>2011-07-21T19:17:05.299Z</time>
      </trkpt>
      <trkpt lat="44.83159" lon="0.98206">
        <ele>32.915794</ele>
        <time>2011-07-21T19:17:09.302Z</time>
      </trkpt>
      <trkpt lat="44.83159" lon="0.98213">
        <ele>31.915821</ele>
        <time>2011-07-21T19:17:10.300Z</time>
      </trkpt>
      <trkpt lat="44.8316" lon="0.9824">
        <ele>30.91592</ele>
        <time>2011-07-21T19:17:14.301Z</time>
      </trkpt>
      <trkpt lat="44.8316" lon="0.98267">
        <ele>28.916016</ele>
        <time>2011-07-21T19:17:18.292Z</time>
      </trkpt>
      <trkpt lat="44.8316" lon="0.98294">
        <ele>27.916115</ele>
        <time>2011-07-21T19:17:22.300Z</time>
      </trkpt>
      <trkpt lat="44.83157" lon="0.9832">
        <ele>26.916199</ele>
        <time>2011-07-21T19:17:26.293Z</time>
      </trkpt>
      <trkpt lat="44.83156" lon="0.98346">
        <ele>25.916286</ele>
        <time>2011-07-21T19:17:30.292Z</time>
      </trkpt>
      <trkpt lat="44.83156" lon="0.98353">
        <ele>24.916306</ele>
        <time>2011-07-21T19:17:31.299Z</time>
      </trkpt>
      <trkpt lat="44.83156" lon="0.98359">
        <ele>24.916336</ele>
        <time>2011-07-21T19:17:32.297Z</time>
      </trkpt>
      <trkpt lat="44.83156" lon="0.98366">
        <ele>24.916348</ele>
        <time>2011-07-21T19:17:33.296Z</time>
      </trkpt>
      <trkpt lat="44.83156" lon="0.98373">
        <ele>23.916378</ele>
        <time>2011-07-21T19:17:34.294Z</time>
      </trkpt>
      <trkpt lat="44.83156" lon="0.98379">
        <ele>23.916405</ele>
        <time>2011-07-21T19:17:35.294Z</time>
      </trkpt>
      <trkpt lat="44.83157" lon="0.98386">
        <ele>23.916428</ele>
        <time>2011-07-21T19:17:36.297Z</time>
      </trkpt>
      <trkpt lat="44.83157" lon="0.98393">
        <ele>23.916447</ele>
        <time>2011-07-21T19:17:37.304Z</time>
      </trkpt>
      <trkpt lat="44.83157" lon="0.98399">
        <ele>22.916477</ele>
        <time>2011-07-21T19:17:38.298Z</time>
      </trkpt>
      <trkpt lat="44.83157" lon="0.98406">
        <ele>22.916496</ele>
        <time>2011-07-21T19:17:39.296Z</time>
      </trkpt>
      <trkpt lat="44.83157" lon="0.98413">
        <ele>22.916519</ele>
        <time>2011-07-21T19:17:40.302Z</time>
      </trkpt>
      <trkpt lat="44.83157" lon="0.9842">
        <ele>22.91655</ele>
        <time>2011-07-21T19:17:41.288Z</time>
      </trkpt>
      <trkpt lat="44.83156" lon="0.98427">
        <ele>21.916576</ele>
        <time>2011-07-21T19:17:42.298Z</time>
      </trkpt>
      <trkpt lat="44.83156" lon="0.98434">
        <ele>21.916588</ele>
        <time>2011-07-21T19:17:43.294Z</time>
      </trkpt>
      <trkpt lat="44.83155" lon="0.98441">
        <ele>21.916618</ele>
        <time>2011-07-21T19:17:44.301Z</time>
      </trkpt>
      <trkpt lat="44.83155" lon="0.98447">
        <ele>20.916634</ele>
        <time>2011-07-21T19:17:45.296Z</time>
      </trkpt>
      <trkpt lat="44.83155" lon="0.98454">
        <ele>20.916664</ele>
        <time>2011-07-21T19:17:46.296Z</time>
      </trkpt>
      <trkpt lat="44.83155" lon="0.98461">
        <ele>20.916691</ele>
        <time>2011-07-21T19:17:47.293Z</time>
      </trkpt>
      <trkpt lat="44.83155" lon="0.98468">
        <ele>20.916714</ele>
        <time>2011-07-21T19:17:48.319Z</time>
      </trkpt>
      <trkpt lat="44.83155" lon="0.98474">
        <ele>20.916733</ele>
        <time>2011-07-21T19:17:49.301Z</time>
      </trkpt>
      <trkpt lat="44.83155" lon="0.98481">
        <ele>20.916763</ele>
        <time>2011-07-21T19:17:50.294Z</time>
      </trkpt>
      <trkpt lat="44.83154" lon="0.98488">
        <ele>20.916782</ele>
        <time>2011-07-21T19:17:51.293Z</time>
      </trkpt>
      <trkpt lat="44.83155" lon="0.98494">
        <ele>19.916801</ele>
        <time>2011-07-21T19:17:52.302Z</time>
      </trkpt>
      <trkpt lat="44.83155" lon="0.98501">
        <ele>19.916824</ele>
        <time>2011-07-21T19:17:53.297Z</time>
      </trkpt>
      <trkpt lat="44.83156" lon="0.98507">
        <ele>19.916859</ele>
        <time>2011-07-21T19:17:54.301Z</time>
      </trkpt>
      <trkpt lat="44.83156" lon="0.98514">
        <ele>19.916878</ele>
        <time>2011-07-21T19:17:55.301Z</time>
      </trkpt>
      <trkpt lat="44.83157" lon="0.9852">
        <ele>18.916904</ele>
        <time>2011-07-21T19:17:56.305Z</time>
      </trkpt>
      <trkpt lat="44.83157" lon="0.98527">
        <ele>18.916924</ele>
        <time>2011-07-21T19:17:57.294Z</time>
      </trkpt>
      <trkpt lat="44.83157" lon="0.98539">
        <ele>18.916973</ele>
        <time>2011-07-21T19:17:59.297Z</time>
      </trkpt>
      <trkpt lat="44.83158" lon="0.98546">
        <ele>18.916992</ele>
        <time>2011-07-21T19:18:00.293Z</time>
      </trkpt>
      <trkpt lat="44.83157" lon="0.98557">
        <ele>17.917038</ele>
        <time>2011-07-21T19:18:02.296Z</time>
      </trkpt>
      <trkpt lat="44.83157" lon="0.9857">
        <ele>17.917091</ele>
        <time>2011-07-21T19:18:04.298Z</time>
      </trkpt>
      <trkpt lat="44.83156" lon="0.98582">
        <ele>17.917118</ele>
        <time>2011-07-21T19:18:06.295Z</time>
      </trkpt>
      <trkpt lat="44.83158" lon="0.98594">
        <ele>16.91716</ele>
        <time>2011-07-21T19:18:08.306Z</time>
      </trkpt>
      <trkpt lat="44.83159" lon="0.98605">
        <ele>16.917217</ele>
        <time>2011-07-21T19:18:10.302Z</time>
      </trkpt>
      <trkpt lat="44.83157" lon="0.98617">
        <ele>16.917244</ele>
        <time>2011-07-21T19:18:12.306Z</time>
      </trkpt>
      <trkpt lat="44.83155" lon="0.98646">
        <ele>16.917343</ele>
        <time>2011-07-21T19:18:17.292Z</time>
      </trkpt>
      <trkpt lat="44.83155" lon="0.98669">
        <ele>16.917427</ele>
        <time>2011-07-21T19:18:21.295Z</time>
      </trkpt>
      <trkpt lat="44.83155" lon="0.9868">
        <ele>16.917458</ele>
        <time>2011-07-21T19:18:23.296Z</time>
      </trkpt>
      <trkpt lat="44.83154" lon="0.98703">
        <ele>16.917538</ele>
        <time>2011-07-21T19:18:27.299Z</time>
      </trkpt>
      <trkpt lat="44.83154" lon="0.98714">
        <ele>17.917576</ele>
        <time>2011-07-21T19:18:29.289Z</time>
      </trkpt>
      <trkpt lat="44.83154" lon="0.98725">
        <ele>17.917618</ele>
        <time>2011-07-21T19:18:31.297Z</time>
      </trkpt>
      <trkpt lat="44.83154" lon="0.9875">
        <ele>17.917698</ele>
        <time>2011-07-21T19:18:36.304Z</time>
      </trkpt>
      <trkpt lat="44.83151" lon="0.9878">
        <ele>16.917805</ele>
        <time>2011-07-21T19:18:41.298Z</time>
      </trkpt>
      <trkpt lat="44.83151" lon="0.98811">
        <ele>16.917912</ele>
        <time>2011-07-21T19:18:46.302Z</time>
      </trkpt>
      <trkpt lat="44.83151" lon="0.98817">
        <ele>16.917942</ele>
        <time>2011-07-21T19:18:47.294Z</time>
      </trkpt>
      <trkpt lat="44.8315" lon="0.98829">
        <ele>16.91798</ele>
        <time>2011-07-21T19:18:49.302Z</time>
      </trkpt>
      <trkpt lat="44.8315" lon="0.9884">
        <ele>16.918015</ele>
        <time>2011-07-21T19:18:51.314Z</time>
      </trkpt>
      <trkpt lat="44.83147" lon="0.9887">
        <ele>16.918106</ele>
        <time>2011-07-21T19:18:56.298Z</time>
      </trkpt>
      <trkpt lat="44.83146" lon="0.98882">
        <ele>16.918144</ele>
        <time>2011-07-21T19:18:58.299Z</time>
      </trkpt>
      <trkpt lat="44.83145" lon="0.98893">
        <ele>16.918182</ele>
        <time>2011-07-21T19:19:00.298Z</time>
      </trkpt>
      <trkpt lat="44.83143" lon="0.98905">
        <ele>16.918205</ele>
        <time>2011-07-21T19:19:02.295Z</time>
      </trkpt>
      <trkpt lat="44.83136" lon="0.98933">
        <ele>16.918282</ele>
        <time>2011-07-21T19:19:07.298Z</time>
      </trkpt>
      <trkpt lat="44.83133" lon="0.98944">
        <ele>15.918297</ele>
        <time>2011-07-21T19:19:09.298Z</time>
      </trkpt>
      <trkpt lat="44.83131" lon="0.98949">
        <ele>15.918312</ele>
        <time>2011-07-21T19:19:10.298Z</time>
      </trkpt>
      <trkpt lat="44.83125" lon="0.98966">
        <ele>15.91835</ele>
        <time>2011-07-21T19:19:13.298Z</time>
      </trkpt>
      <trkpt lat="44.83116" lon="0.98993">
        <ele>13.918415</ele>
        <time>2011-07-21T19:19:18.298Z</time>
      </trkpt>
      <trkpt lat="44.83107" lon="0.99017">
        <ele>13.918449</ele>
        <time>2011-07-21T19:19:23.294Z</time>
      </trkpt>
      <trkpt lat="44.83094" lon="0.99038">
        <ele>13.918472</ele>
        <time>2011-07-21T19:19:29.294Z</time>
      </trkpt>
      <trkpt lat="44.83089" lon="0.99045">
        <ele>13.91848</ele>
        <time>2011-07-21T19:19:31.301Z</time>
      </trkpt>
      <trkpt lat="44.83083" lon="0.99052">
        <ele>13.91848</ele>
        <time>2011-07-21T19:19:33.297Z</time>
      </trkpt>
      <trkpt lat="44.83071" lon="0.99072">
        <ele>14.918503</ele>
        <time>2011-07-21T19:19:38.298Z</time>
      </trkpt>
      <trkpt lat="44.83069" lon="0.9908">
        <ele>14.91851</ele>
        <time>2011-07-21T19:19:40.295Z</time>
      </trkpt>
      <trkpt lat="44.83071" lon="0.99087">
        <ele>14.918549</ele>
        <time>2011-07-21T19:19:42.296Z</time>
      </trkpt>
      <trkpt lat="44.83075" lon="0.99094">
        <ele>14.918591</ele>
        <time>2011-07-21T19:19:44.299Z</time>
      </trkpt>
      <trkpt lat="44.83078" lon="0.99101">
        <ele>14.918633</ele>
        <time>2011-07-21T19:19:46.301Z</time>
      </trkpt>
      <trkpt lat="44.83082" lon="0.99108">
        <ele>15.918678</ele>
        <time>2011-07-21T19:19:48.297Z</time>
      </trkpt>
      <trkpt lat="44.8309" lon="0.99122">
        <ele>15.918747</ele>
        <time>2011-07-21T19:19:52.294Z</time>
      </trkpt>
      <trkpt lat="44.83104" lon="0.99143">
        <ele>16.918884</ele>
        <time>2011-07-21T19:19:58.303Z</time>
      </trkpt>
      <trkpt lat="44.83116" lon="0.99163">
        <ele>15.919006</ele>
        <time>2011-07-21T19:20:03.304Z</time>
      </trkpt>
      <trkpt lat="44.83128" lon="0.99182">
        <ele>15.919136</ele>
        <time>2011-07-21T19:20:08.295Z</time>
      </trkpt>
      <trkpt lat="44.83141" lon="0.99201">
        <ele>15.919243</ele>
        <time>2011-07-21T19:20:13.297Z</time>
      </trkpt>
      <trkpt lat="44.83153" lon="0.99221">
        <ele>15.91938</ele>
        <time>2011-07-21T19:20:18.295Z</time>
      </trkpt>
      <trkpt lat="44.83168" lon="0.99242">
        <ele>15.919518</ele>
        <time>2011-07-21T19:20:23.296Z</time>
      </trkpt>
      <trkpt lat="44.8318" lon="0.99262">
        <ele>16.919636</ele>
        <time>2011-07-21T19:20:28.294Z</time>
      </trkpt>
      <trkpt lat="44.83192" lon="0.99287">
        <ele>16.919765</ele>
        <time>2011-07-21T19:20:34.301Z</time>
      </trkpt>
      <trkpt lat="44.83196" lon="0.99296">
        <ele>16.919819</ele>
        <time>2011-07-21T19:20:36.293Z</time>
      </trkpt>
      <trkpt lat="44.83201" lon="0.99304">
        <ele>16.919876</ele>
        <time>2011-07-21T19:20:38.293Z</time>
      </trkpt>
      <trkpt lat="44.83204" lon="0.99312">
        <ele>16.919918</ele>
        <time>2011-07-21T19:20:40.298Z</time>
      </trkpt>
      <trkpt lat="44.83212" lon="0.99325">
        <ele>16.919998</ele>
        <time>2011-07-21T19:20:44.299Z</time>
      </trkpt>
      <trkpt lat="44.83217" lon="0.99332">
        <ele>16.920033</ele>
        <time>2011-07-21T19:20:46.301Z</time>
      </trkpt>
      <trkpt lat="44.83221" lon="0.99338">
        <ele>16.920074</ele>
        <time>2011-07-21T19:20:48.297Z</time>
      </trkpt>
      <trkpt lat="44.83225" lon="0.99345">
        <ele>15.920116</ele>
        <time>2011-07-21T19:20:50.293Z</time>
      </trkpt>
      <trkpt lat="44.83229" lon="0.99351">
        <ele>15.920158</ele>
        <time>2011-07-21T19:20:52.299Z</time>
      </trkpt>
      <trkpt lat="44.83233" lon="0.99358">
        <ele>15.9202</ele>
        <time>2011-07-21T19:20:54.295Z</time>
      </trkpt>
      <trkpt lat="44.83237" lon="0.99364">
        <ele>15.920242</ele>
        <time>2011-07-21T19:20:56.307Z</time>
      </trkpt>
      <trkpt lat="44.83241" lon="0.99372">
        <ele>15.920284</ele>
        <time>2011-07-21T19:20:58.297Z</time>
      </trkpt>
      <trkpt lat="44.83245" lon="0.99379">
        <ele>16.920326</ele>
        <time>2011-07-21T19:21:00.300Z</time>
      </trkpt>
      <trkpt lat="44.83251" lon="0.99392">
        <ele>16.920403</ele>
        <time>2011-07-21T19:21:03.321Z</time>
      </trkpt>
      <trkpt lat="44.83254" lon="0.99401">
        <ele>16.920437</ele>
        <time>2011-07-21T19:21:07.281Z</time>
      </trkpt>
      <trkpt lat="44.83261" lon="0.99418">
        <ele>16.92054</ele>
        <time>2011-07-21T19:21:11.289Z</time>
      </trkpt>
      <trkpt lat="44.83266" lon="0.99429">
        <ele>15.920593</ele>
        <time>2011-07-21T19:21:14.281Z</time>
      </trkpt>
      <trkpt lat="44.83272" lon="0.99441">
        <ele>15.920662</ele>
        <time>2011-07-21T19:21:17.284Z</time>
      </trkpt>
      <trkpt lat="44.83276" lon="0.99449">
        <ele>16.920704</ele>
        <time>2011-07-21T19:21:19.290Z</time>
      </trkpt>
      <trkpt lat="44.83281" lon="0.99457">
        <ele>15.92075</ele>
        <time>2011-07-21T19:21:21.279Z</time>
      </trkpt>
      <trkpt lat="44.83286" lon="0.99465">
        <ele>15.920803</ele>
        <time>2011-07-21T19:21:23.283Z</time>
      </trkpt>
      <trkpt lat="44.83291" lon="0.99474">
        <ele>14.920856</ele>
        <time>2011-07-21T19:21:25.283Z</time>
      </trkpt>
      <trkpt lat="44.83295" lon="0.99483">
        <ele>14.920902</ele>
        <time>2011-07-21T19:21:27.287Z</time>
      </trkpt>
      <trkpt lat="44.833" lon="0.9949">
        <ele>14.920952</ele>
        <time>2011-07-21T19:21:29.290Z</time>
      </trkpt>
      <trkpt lat="44.83305" lon="0.99498">
        <ele>14.921005</ele>
        <time>2011-07-21T19:21:31.297Z</time>
      </trkpt>
      <trkpt lat="44.83309" lon="0.99506">
        <ele>14.921051</ele>
        <time>2011-07-21T19:21:33.296Z</time>
      </trkpt>
      <trkpt lat="44.83313" lon="0.99513">
        <ele>15.921093</ele>
        <time>2011-07-21T19:21:35.279Z</time>
      </trkpt>
      <trkpt lat="44.83317" lon="0.9952">
        <ele>15.921135</ele>
        <time>2011-07-21T19:21:37.281Z</time>
      </trkpt>
      <trkpt lat="44.83321" lon="0.99526">
        <ele>15.921165</ele>
        <time>2011-07-21T19:21:39.283Z</time>
      </trkpt>
      <trkpt lat="44.83325" lon="0.99533">
        <ele>15.921211</ele>
        <time>2011-07-21T19:21:41.283Z</time>
      </trkpt>
      <trkpt lat="44.83329" lon="0.99538">
        <ele>16.921246</ele>
        <time>2011-07-21T19:21:43.289Z</time>
      </trkpt>
      <trkpt lat="44.83333" lon="0.99544">
        <ele>16.921288</ele>
        <time>2011-07-21T19:21:45.281Z</time>
      </trkpt>
      <trkpt lat="44.83336" lon="0.9955">
        <ele>16.921329</ele>
        <time>2011-07-21T19:21:47.286Z</time>
      </trkpt>
      <trkpt lat="44.8334" lon="0.99556">
        <ele>17.921356</ele>
        <time>2011-07-21T19:21:49.285Z</time>
      </trkpt>
      <trkpt lat="44.83344" lon="0.99562">
        <ele>17.921387</ele>
        <time>2011-07-21T19:21:51.283Z</time>
      </trkpt>
      <trkpt lat="44.83347" lon="0.99568">
        <ele>17.921432</ele>
        <time>2011-07-21T19:21:53.282Z</time>
      </trkpt>
      <trkpt lat="44.83351" lon="0.99574">
        <ele>17.921463</ele>
        <time>2011-07-21T19:21:55.285Z</time>
      </trkpt>
      <trkpt lat="44.83352" lon="0.99582">
        <ele>17.921501</ele>
        <time>2011-07-21T19:21:57.286Z</time>
      </trkpt>
      <trkpt lat="44.83349" lon="0.99589">
        <ele>17.921509</ele>
        <time>2011-07-21T19:21:59.282Z</time>
      </trkpt>
      <trkpt lat="44.83345" lon="0.99595">
        <ele>17.921513</ele>
        <time>2011-07-21T19:22:01.283Z</time>
      </trkpt>
      <trkpt lat="44.83338" lon="0.996">
        <ele>16.921505</ele>
        <time>2011-07-21T19:22:03.282Z</time>
      </trkpt>
      <trkpt lat="44.83332" lon="0.99605">
        <ele>16.921501</ele>
        <time>2011-07-21T19:22:05.285Z</time>
      </trkpt>
      <trkpt lat="44.83324" lon="0.99612">
        <ele>16.921482</ele>
        <time>2011-07-21T19:22:07.282Z</time>
      </trkpt>
      <trkpt lat="44.83317" lon="0.99617">
        <ele>16.921471</ele>
        <time>2011-07-21T19:22:09.285Z</time>
      </trkpt>
      <trkpt lat="44.83308" lon="0.99623">
        <ele>16.921455</ele>
        <time>2011-07-21T19:22:11.283Z</time>
      </trkpt>
      <trkpt lat="44.833" lon="0.9963">
        <ele>17.921448</ele>
        <time>2011-07-21T19:22:13.283Z</time>
      </trkpt>
      <trkpt lat="44.83283" lon="0.99642">
        <ele>17.921417</ele>
        <time>2011-07-21T19:22:17.282Z</time>
      </trkpt>
      <trkpt lat="44.83279" lon="0.99645">
        <ele>17.92141</ele>
        <time>2011-07-21T19:22:18.292Z</time>
      </trkpt>
      <trkpt lat="44.83275" lon="0.99648">
        <ele>17.921402</ele>
        <time>2011-07-21T19:22:19.281Z</time>
      </trkpt>
      <trkpt lat="44.8327" lon="0.99651">
        <ele>17.921391</ele>
        <time>2011-07-21T19:22:20.278Z</time>
      </trkpt>
      <trkpt lat="44.83266" lon="0.99653">
        <ele>17.921383</ele>
        <time>2011-07-21T19:22:21.282Z</time>
      </trkpt>
      <trkpt lat="44.83255" lon="0.99664">
        <ele>18.921375</ele>
        <time>2011-07-21T19:22:24.278Z</time>
      </trkpt>
      <trkpt lat="44.83248" lon="0.99672">
        <ele>18.921379</ele>
        <time>2011-07-21T19:22:26.281Z</time>
      </trkpt>
      <trkpt lat="44.83241" lon="0.99678">
        <ele>19.921364</ele>
        <time>2011-07-21T19:22:28.284Z</time>
      </trkpt>
      <trkpt lat="44.83234" lon="0.99684">
        <ele>19.921356</ele>
        <time>2011-07-21T19:22:30.294Z</time>
      </trkpt>
      <trkpt lat="44.83228" lon="0.99691">
        <ele>19.92136</ele>
        <time>2011-07-21T19:22:32.285Z</time>
      </trkpt>
      <trkpt lat="44.83222" lon="0.99698">
        <ele>19.921356</ele>
        <time>2011-07-21T19:22:34.281Z</time>
      </trkpt>
      <trkpt lat="44.83216" lon="0.99703">
        <ele>20.921356</ele>
        <time>2011-07-21T19:22:36.284Z</time>
      </trkpt>
      <trkpt lat="44.8321" lon="0.99709">
        <ele>20.921352</ele>
        <time>2011-07-21T19:22:38.276Z</time>
      </trkpt>
      <trkpt lat="44.83205" lon="0.99714">
        <ele>19.921349</ele>
        <time>2011-07-21T19:22:40.278Z</time>
      </trkpt>
      <trkpt lat="44.83199" lon="0.99719">
        <ele>19.921337</ele>
        <time>2011-07-21T19:22:42.290Z</time>
      </trkpt>
      <trkpt lat="44.83193" lon="0.99725">
        <ele>18.921326</ele>
        <time>2011-07-21T19:22:44.281Z</time>
      </trkpt>
      <trkpt lat="44.83186" lon="0.99728">
        <ele>18.921314</ele>
        <time>2011-07-21T19:22:46.292Z</time>
      </trkpt>
      <trkpt lat="44.83178" lon="0.99731">
        <ele>18.921291</ele>
        <time>2011-07-21T19:22:48.283Z</time>
      </trkpt>
      <trkpt lat="44.83171" lon="0.99733">
        <ele>18.921265</ele>
        <time>2011-07-21T19:22:50.283Z</time>
      </trkpt>
      <trkpt lat="44.83163" lon="0.99735">
        <ele>19.921238</ele>
        <time>2011-07-21T19:22:52.285Z</time>
      </trkpt>
      <trkpt lat="44.83155" lon="0.99737">
        <ele>19.921215</ele>
        <time>2011-07-21T19:22:54.291Z</time>
      </trkpt>
      <trkpt lat="44.83148" lon="0.99738">
        <ele>18.921181</ele>
        <time>2011-07-21T19:22:56.279Z</time>
      </trkpt>
      <trkpt lat="44.8314" lon="0.9974">
        <ele>18.92115</ele>
        <time>2011-07-21T19:22:58.287Z</time>
      </trkpt>
      <trkpt lat="44.83132" lon="0.99741">
        <ele>18.921127</ele>
        <time>2011-07-21T19:23:00.287Z</time>
      </trkpt>
      <trkpt lat="44.83125" lon="0.99742">
        <ele>18.921104</ele>
        <time>2011-07-21T19:23:02.280Z</time>
      </trkpt>
      <trkpt lat="44.83117" lon="0.99743">
        <ele>18.921082</ele>
        <time>2011-07-21T19:23:04.286Z</time>
      </trkpt>
      <trkpt lat="44.83109" lon="0.99744">
        <ele>17.921051</ele>
        <time>2011-07-21T19:23:06.281Z</time>
      </trkpt>
      <trkpt lat="44.83101" lon="0.99745">
        <ele>17.921013</ele>
        <time>2011-07-21T19:23:08.281Z</time>
      </trkpt>
      <trkpt lat="44.83094" lon="0.99746">
        <ele>17.920982</ele>
        <time>2011-07-21T19:23:10.281Z</time>
      </trkpt>
      <trkpt lat="44.83086" lon="0.99747">
        <ele>16.920956</ele>
        <time>2011-07-21T19:23:12.286Z</time>
      </trkpt>
      <trkpt lat="44.83078" lon="0.99749">
        <ele>17.920929</ele>
        <time>2011-07-21T19:23:14.281Z</time>
      </trkpt>
      <trkpt lat="44.8307" lon="0.9975">
        <ele>17.920898</ele>
        <time>2011-07-21T19:23:16.282Z</time>
      </trkpt>
      <trkpt lat="44.83062" lon="0.99752">
        <ele>17.920872</ele>
        <time>2011-07-21T19:23:18.286Z</time>
      </trkpt>
      <trkpt lat="44.83054" lon="0.99753">
        <ele>17.920837</ele>
        <time>2011-07-21T19:23:20.277Z</time>
      </trkpt>
      <trkpt lat="44.83047" lon="0.99755">
        <ele>17.920811</ele>
        <time>2011-07-21T19:23:22.282Z</time>
      </trkpt>
      <trkpt lat="44.83036" lon="0.99757">
        <ele>18.920776</ele>
        <time>2011-07-21T19:23:25.284Z</time>
      </trkpt>
      <trkpt lat="44.83029" lon="0.99759">
        <ele>18.92075</ele>
        <time>2011-07-21T19:23:27.283Z</time>
      </trkpt>
      <trkpt lat="44.83021" lon="0.99761">
        <ele>19.920742</ele>
        <time>2011-07-21T19:23:30.274Z</time>
      </trkpt>
      <trkpt lat="44.83015" lon="0.99763">
        <ele>18.920712</ele>
        <time>2011-07-21T19:23:32.282Z</time>
      </trkpt>
      <trkpt lat="44.83009" lon="0.99763">
        <ele>18.920685</ele>
        <time>2011-07-21T19:23:34.279Z</time>
      </trkpt>
      <trkpt lat="44.83003" lon="0.99764">
        <ele>18.920658</ele>
        <time>2011-07-21T19:23:36.284Z</time>
      </trkpt>
      <trkpt lat="44.82996" lon="0.99765">
        <ele>18.920647</ele>
        <time>2011-07-21T19:23:38.293Z</time>
      </trkpt>
      <trkpt lat="44.8299" lon="0.99766">
        <ele>17.920609</ele>
        <time>2011-07-21T19:23:40.290Z</time>
      </trkpt>
      <trkpt lat="44.82983" lon="0.99767">
        <ele>17.920593</ele>
        <time>2011-07-21T19:23:42.286Z</time>
      </trkpt>
      <trkpt lat="44.82976" lon="0.99768">
        <ele>17.920567</ele>
        <time>2011-07-21T19:23:44.286Z</time>
      </trkpt>
      <trkpt lat="44.8297" lon="0.9977">
        <ele>16.92054</ele>
        <time>2011-07-21T19:23:46.284Z</time>
      </trkpt>
      <trkpt lat="44.82963" lon="0.99772">
        <ele>16.920525</ele>
        <time>2011-07-21T19:23:48.284Z</time>
      </trkpt>
      <trkpt lat="44.82957" lon="0.99774">
        <ele>15.920498</ele>
        <time>2011-07-21T19:23:50.280Z</time>
      </trkpt>
      <trkpt lat="44.82951" lon="0.99775">
        <ele>15.920479</ele>
        <time>2011-07-21T19:23:52.287Z</time>
      </trkpt>
      <trkpt lat="44.82945" lon="0.99776">
        <ele>15.920452</ele>
        <time>2011-07-21T19:23:54.284Z</time>
      </trkpt>
      <trkpt lat="44.82933" lon="0.99777">
        <ele>14.920414</ele>
        <time>2011-07-21T19:23:58.283Z</time>
      </trkpt>
      <trkpt lat="44.82928" lon="0.99778">
        <ele>15.920395</ele>
        <time>2011-07-21T19:24:00.282Z</time>
      </trkpt>
      <trkpt lat="44.82922" lon="0.99778">
        <ele>14.920372</ele>
        <time>2011-07-21T19:24:02.290Z</time>
      </trkpt>
      <trkpt lat="44.82916" lon="0.9978">
        <ele>14.920349</ele>
        <time>2011-07-21T19:24:04.284Z</time>
      </trkpt>
      <trkpt lat="44.82911" lon="0.99783">
        <ele>14.920341</ele>
        <time>2011-07-21T19:24:06.285Z</time>
      </trkpt>
      <trkpt lat="44.82905" lon="0.99785">
        <ele>14.920319</ele>
        <time>2011-07-21T19:24:08.313Z</time>
      </trkpt>
      <trkpt lat="44.829" lon="0.99787">
        <ele>13.920303</ele>
        <time>2011-07-21T19:24:10.283Z</time>
      </trkpt>
      <trkpt lat="44.82894" lon="0.99788">
        <ele>13.920288</ele>
        <time>2011-07-21T19:24:12.289Z</time>
      </trkpt>
      <trkpt lat="44.82889" lon="0.99789">
        <ele>12.920265</ele>
        <time>2011-07-21T19:24:14.281Z</time>
      </trkpt>
      <trkpt lat="44.82883" lon="0.9979">
        <ele>12.92025</ele>
        <time>2011-07-21T19:24:16.283Z</time>
      </trkpt>
      <trkpt lat="44.82878" lon="0.99791">
        <ele>12.920227</ele>
        <time>2011-07-21T19:24:18.285Z</time>
      </trkpt>
      <trkpt lat="44.82874" lon="0.99792">
        <ele>12.920216</ele>
        <time>2011-07-21T19:24:20.283Z</time>
      </trkpt>
      <trkpt lat="44.82861" lon="0.99794">
        <ele>10.92017</ele>
        <time>2011-07-21T19:24:25.282Z</time>
      </trkpt>
      <trkpt lat="44.82856" lon="0.99794">
        <ele>10.920147</ele>
        <time>2011-07-21T19:24:27.281Z</time>
      </trkpt>
      <trkpt lat="44.82851" lon="0.99795">
        <ele>10.92012</ele>
        <time>2011-07-21T19:24:29.283Z</time>
      </trkpt>
      <trkpt lat="44.82846" lon="0.99795">
        <ele>10.920109</ele>
        <time>2011-07-21T19:24:31.286Z</time>
      </trkpt>
      <trkpt lat="44.82841" lon="0.99795">
        <ele>10.920082</ele>
        <time>2011-07-21T19:24:33.292Z</time>
      </trkpt>
      <trkpt lat="44.82836" lon="0.99795">
        <ele>9.920059</ele>
        <time>2011-07-21T19:24:35.281Z</time>
      </trkpt>
      <trkpt lat="44.82831" lon="0.99795">
        <ele>9.920036</ele>
        <time>2011-07-21T19:24:37.290Z</time>
      </trkpt>
      <trkpt lat="44.82819" lon="0.99796">
        <ele>9.919994</ele>
        <time>2011-07-21T19:24:43.286Z</time>
      </trkpt>
      <trkpt lat="44.82813" lon="0.99799">
        <ele>9.919979</ele>
        <time>2011-07-21T19:24:46.286Z</time>
      </trkpt>
      <trkpt lat="44.82809" lon="0.99803">
        <ele>10.919979</ele>
        <time>2011-07-21T19:24:48.284Z</time>
      </trkpt>
      <trkpt lat="44.82804" lon="0.99804">
        <ele>11.919956</ele>
        <time>2011-07-21T19:24:50.281Z</time>
      </trkpt>
      <trkpt lat="44.82799" lon="0.99803">
        <ele>11.919933</ele>
        <time>2011-07-21T19:24:52.278Z</time>
      </trkpt>
      <trkpt lat="44.82794" lon="0.99797">
        <ele>12.919891</ele>
        <time>2011-07-21T19:24:55.287Z</time>
      </trkpt>
    </trkseg>
  </trk>
</gpx>